AirNav   Everest Fuels
 
 1095 users online  

1MN1 Fairview Ridges Hospital Heliport
Burnsville, Minnesota, USA

GOING TO BURNSVILLE?


FAA INFORMATION EFFECTIVE 26 JANUARY 2023

Location

FAA Identifier: 1MN1
Lat/Long: 44-44-50.3500N 093-16-22.0100W
44-44.839167N 093-16.366833W
44.7473194,-93.2727806
(estimated)
Elevation: 1050 ft. / 320 m
From city: 1 mile N of BURNSVILLE, MN
Time zone: UTC -6 (UTC -5 during Daylight Saving Time)
Zip code: 55306

Heliport Operations

Heliport use: Private use. Permission required prior to landing
Activation date: 04/2017
Control tower: no
ARTCC: MINNEAPOLIS CENTER
FSS: PRINCETON FLIGHT SERVICE STATION
Attendance: 
Segmented circle: no

Heliport Communications

WX AWOS-3 at LVN (7 nm S): 118.0 (952-469-5850)
WX ASOS at MSP (8 nm N): PHONE 612-713-4174
WX ASOS at FCM (9 nm NW): PHONE 952-941-4156
WX AWOS-3 at SGS (12 nm NE): 119.425 (651-457-8120)
WX ASOS at STP (14 nm NE): 118.35 (651-312-8888)
WX ASOS at MIC (19 nm N): PHONE 763-531-2343
WX AWOS-3 at SYN (20 nm SE): 119.35 (507-664-3806)

Nearby radio navigation aids

VOR radial/distance  VOR name  Freq  Var
FGTr325/8.0FARMINGTON VORTAC115.7006E
FCMr122/8.6FLYING CLOUD VOR/DME117.7001E
MSPr188/9.1MINNEAPOLIS VOR/DME115.3002E
GEPr164/24.3GOPHER VORTAC117.3006E
FOWr005/32.8HALFWAY VOR/DME111.2002E

Heliport Services

Runway Information

Helipad H1

Dimensions: 45 x 45 ft. / 14 x 14 m
Surface: concrete
Latitude: 44-44.839167N
Longitude: 093-16.366833W
Elevation: 1050.0 ft.
Traffic pattern: leftleft

Heliport Ownership and Management from official FAA records

Ownership: Privately-owned
Owner: FAIRVIEW RIDGES HOSPITAL
201 EAST NICOLLET BLVD
BURNSVILLE, MN 55337
Phone 952-892-2000
Manager: BRIAN KNAPP
201 EAST NICOLLET BLVD
BURNSVILLE, MN 55337
Phone 952-892-2102

Additional Remarks

FOR CD CTC MINNEAPOLIS ARTCC AT 651-463-5588.

Instrument Procedures

There are no published instrument procedures at 1MN1.

Some nearby airports with instrument procedures:

KLVN - Airlake Airport (7 nm S)
KMSP - Minneapolis-St Paul International/Wold-Chamberlain Airport (8 nm N)
KFCM - Flying Cloud Airport (9 nm NW)
KSGS - South St Paul Municipal Airport/Richard E Fleming Field (12 nm NE)
KSTP - St Paul Downtown Airport Holman Field (14 nm NE)
KMIC - Crystal Airport (19 nm N)
 
Loc | Ops | Rwys | IFR | FBO | Links
Com | Nav | Svcs | Stats | Notes
Aerial photo
No photo
 
Airport distance calculator
Flying to Fairview Ridges Hospital Heliport? Find the distance to fly.

From to 1MN1

Sunrise and sunset
Times for 08-Feb-2023
 Local
(UTC-6)
 Zulu
(UTC)
Morning civil twilight06:5412:54
Sunrise07:2513:25
Sunset17:3023:30
Evening civil twilight18:0100:01

Current date and time
Zulu (UTC)  09-Feb-2023 01:55:30
Local (UTC-6)  08-Feb-2023 19:55:30
 
METAR
KSGS 
8nm NE 
090135Z AUTO 00000KT 10SM CLR 01/M02 A2997 RMK AO2 T00121022
KLVN 
8nm S 
090135Z AUTO 16003KT 10SM CLR 00/M03 A2997 RMK AO2
KMSP 
8nm N 
090053Z 12003KT 10SM FEW250 03/M02 A2998 RMK AO2 SLP164 T00281022
KFCM 
10nm NW 
090053Z 15005KT 10SM CLR 02/M03 A2996 RMK AO2 SLP157 T00171028
KSTP 
15nm NE 
090053Z 17006KT 10SM CLR 02/M02 A3000 RMK AO2 SLP165 T00171022
KMIC 
19nm N 
090053Z 15007KT 10SM CLR 02/M02 A2996 RMK AO2 SLP156 T00221022
KSYN 
20nm SE 
090135Z AUTO 19008KT 10SM CLR 02/M02 A2997 RMK AO2 T00181024
TAF
KMSP 
8nm N 
082023Z 0820/0924 19010KT P6SM SKC FM090500 15004KT P6SM SCT200 TEMPO 0912/0915 FEW008 BKN015 FM091500 35012G22KT 6SM BR SCT008 OVC012 FM091900 34020G29KT P6SM OVC012
NOTAMs
Click for the latest NOTAMs
NOTAMs are issued by the DoD/FAA and will open in a separate window not controlled by AirNav.

 

 
 

Would you like to see your business listed on this page?

 If your business provides an interesting product or service to pilots, flight crews, aircraft, or users of the Fairview Ridges Hospital Heliport, you should consider listing it here.  To start the listing process, click on the button below
 
Add a business
 

Other Pages about Fairview Ridges Hospital Heliport

Update a link
 
Copyright © AirNav, LLC. All rights reserved. Privacy Policy  Contact